createdAt,value
2019-01-23T00:00:05.755Z,28.90
2019-01-23T00:01:05.726Z,28.30
2019-01-23T00:02:05.723Z,29.20
2019-01-23T00:03:05.722Z,29.20
2019-01-23T00:04:05.692Z,28.50
2019-01-23T00:05:05.682Z,28.00
2019-01-23T00:06:05.691Z,28.90
2019-01-23T00:07:05.666Z,29.20
2019-01-23T00:08:05.667Z,28.00
2019-01-23T00:09:05.646Z,28.30
2019-01-23T00:10:05.635Z,27.60
2019-01-23T00:11:05.621Z,27.60
2019-01-23T00:12:05.610Z,28.40
2019-01-23T00:13:05.604Z,26.80
2019-01-23T00:14:05.637Z,27.10
2019-01-23T00:15:05.583Z,27.50
2019-01-23T00:16:05.563Z,27.70
2019-01-23T00:17:05.561Z,26.00
2019-01-23T00:18:05.551Z,27.70
2019-01-23T00:19:05.544Z,28.00
2019-01-23T00:20:05.556Z,27.70
2019-01-23T00:21:05.526Z,28.20
2019-01-23T00:22:05.500Z,29.20
2019-01-23T00:23:05.494Z,28.90
2019-01-23T00:24:05.496Z,29.30
2019-01-23T00:25:05.472Z,27.50
2019-01-23T00:26:05.458Z,27.80
2019-01-23T00:27:05.456Z,29.10
2019-01-23T00:28:05.459Z,29.50
2019-01-23T00:29:05.426Z,29.70
2019-01-23T00:30:05.415Z,28.70
2019-01-23T00:31:05.407Z,28.90
2019-01-23T00:32:05.413Z,29.10
2019-01-23T00:33:05.389Z,28.50
2019-01-23T00:34:05.390Z,28.70
2019-01-23T00:35:12.905Z,28.70
2019-01-23T00:36:12.886Z,28.80
2019-01-23T00:37:14.283Z,30.20
2019-01-23T00:38:05.330Z,28.40
2019-01-23T00:39:05.320Z,27.40
2019-01-23T00:40:05.335Z,28.90
2019-01-23T00:41:05.299Z,28.70
2019-01-23T00:42:05.290Z,29.40
2019-01-23T00:43:05.309Z,29.50
2019-01-23T00:44:05.267Z,28.80
2019-01-23T00:45:05.256Z,27.20
2019-01-23T00:46:05.267Z,28.80
2019-01-23T00:47:05.238Z,29.40
2019-01-23T00:48:05.227Z,28.30
2019-01-23T00:49:05.224Z,30.80
2019-01-23T00:50:05.203Z,29.80
2019-01-23T00:51:05.202Z,29.60
2019-01-23T00:52:05.181Z,30.30
2019-01-23T00:53:05.170Z,28.50
2019-01-23T00:54:05.168Z,29.40
2019-01-23T00:55:05.159Z,29.00
2019-01-23T00:56:05.138Z,29.20
2019-01-23T00:57:05.125Z,29.80
2019-01-23T00:58:05.135Z,31.10
2019-01-23T00:59:05.106Z,30.60
2019-01-23T01:00:05.120Z,30.40
2019-01-23T01:01:05.090Z,30.50
2019-01-23T01:02:05.079Z,30.20
2019-01-23T01:03:05.063Z,31.00
2019-01-23T01:04:05.063Z,29.80
2019-01-23T01:05:05.042Z,29.90
2019-01-23T01:06:05.042Z,29.80
2019-01-23T01:07:05.019Z,29.30
2019-01-23T01:08:05.012Z,31.10
2019-01-23T01:09:05.001Z,30.40
2019-01-23T01:10:05.001Z,30.70
2019-01-23T01:11:04.994Z,29.80
2019-01-23T01:12:04.968Z,30.30
2019-01-23T01:13:04.952Z,30.30
2019-01-23T01:14:04.941Z,30.40
2019-01-23T01:15:04.934Z,29.30
2019-01-23T01:16:04.932Z,30.60
2019-01-23T01:17:04.927Z,30.10
2019-01-23T01:18:04.899Z,30.60
2019-01-23T01:19:04.893Z,30.20
2019-01-23T01:20:04.883Z,29.10
2019-01-23T01:21:04.886Z,31.20
2019-01-23T01:22:04.859Z,29.90
2019-01-23T01:23:04.890Z,30.00
2019-01-23T01:24:04.835Z,32.10
2019-01-23T01:25:04.826Z,30.10
2019-01-23T01:26:04.821Z,29.80
2019-01-23T01:27:04.834Z,31.20
2019-01-23T01:28:04.798Z,29.60
2019-01-23T01:29:04.813Z,30.00
2019-01-23T01:30:04.779Z,29.40
2019-01-23T01:31:04.771Z,30.30
2019-01-23T01:32:04.749Z,28.20
2019-01-23T01:33:04.736Z,28.10
2019-01-23T01:34:04.726Z,28.60
2019-01-23T01:35:04.723Z,30.20
2019-01-23T01:36:04.737Z,30.50
2019-01-23T01:37:04.699Z,30.00
2019-01-23T01:38:04.684Z,29.90
2019-01-23T01:39:04.674Z,30.90
2019-01-23T01:40:04.660Z,31.20
2019-01-23T01:41:04.669Z,31.00
2019-01-23T01:42:04.671Z,30.60
2019-01-23T01:43:04.633Z,30.00
2019-01-23T01:44:04.621Z,27.60
2019-01-23T01:45:04.614Z,29.50
2019-01-23T01:46:04.597Z,28.80
2019-01-23T01:47:04.600Z,30.50
2019-01-23T01:48:04.604Z,30.30
2019-01-23T01:49:04.575Z,30.10
2019-01-23T01:50:04.556Z,29.00
2019-01-23T01:51:04.543Z,29.00
2019-01-23T01:52:04.534Z,28.90
2019-01-23T01:53:04.539Z,29.90
2019-01-23T01:54:04.535Z,30.00
2019-01-23T01:55:04.502Z,29.70
2019-01-23T01:56:04.494Z,28.60
2019-01-23T01:57:04.479Z,30.10
2019-01-23T01:58:04.471Z,29.60
2019-01-23T01:59:04.469Z,29.10
2019-01-23T02:00:04.475Z,31.20
2019-01-23T02:01:04.436Z,31.00
2019-01-23T02:02:04.431Z,29.30
2019-01-23T02:03:04.433Z,29.70
2019-01-23T02:04:04.403Z,28.90
2019-01-23T02:05:04.394Z,29.70
2019-01-23T02:06:04.398Z,30.00
2019-01-23T02:07:04.378Z,29.00
2019-01-23T02:08:04.360Z,29.80
2019-01-23T02:09:04.364Z,28.80
2019-01-23T02:10:04.339Z,29.20
2019-01-23T02:11:04.328Z,29.70
2019-01-23T02:12:04.314Z,29.40
2019-01-23T02:13:04.331Z,29.50
2019-01-23T02:14:04.339Z,29.30
2019-01-23T02:15:04.285Z,30.20
2019-01-23T02:16:04.274Z,30.40
2019-01-23T02:17:04.280Z,30.90
2019-01-23T02:18:04.256Z,29.20
2019-01-23T02:19:04.246Z,29.70
2019-01-23T02:21:16.536Z,27.40
2019-01-23T02:22:16.511Z,30.70
2019-01-23T02:23:16.499Z,29.90
2019-01-23T02:24:16.501Z,30.80
2019-01-23T02:25:16.481Z,29.20
2019-01-23T02:26:16.467Z,30.40
2019-01-23T02:27:16.491Z,31.10
2019-01-23T02:28:16.445Z,30.80
2019-01-23T02:29:16.438Z,30.30
2019-01-23T02:30:16.426Z,30.80
2019-01-23T02:31:16.413Z,28.90
2019-01-23T02:32:16.414Z,30.40
2019-01-23T02:33:16.411Z,28.60
2019-01-23T02:34:16.381Z,30.20
2019-01-23T02:35:16.375Z,30.90
2019-01-23T02:36:16.362Z,29.20
2019-01-23T02:37:16.354Z,29.20
2019-01-23T02:38:16.363Z,28.90
2019-01-23T02:39:16.339Z,29.80
2019-01-23T02:40:16.332Z,29.90
2019-01-23T02:41:16.310Z,29.30
2019-01-23T02:42:16.301Z,29.30
2019-01-23T02:43:16.288Z,29.70
2019-01-23T02:44:16.279Z,29.30
2019-01-23T02:45:16.276Z,30.20
2019-01-23T02:46:16.265Z,29.20
2019-01-23T02:47:16.246Z,30.40
2019-01-23T02:48:16.238Z,30.50
2019-01-23T02:49:16.226Z,29.60
2019-01-23T02:50:16.214Z,29.90
2019-01-23T02:51:16.217Z,29.80
2019-01-23T02:52:16.195Z,29.70
2019-01-23T02:53:16.192Z,28.70
2019-01-23T02:54:16.172Z,31.30
2019-01-23T02:55:16.163Z,29.10
2019-01-23T02:56:16.152Z,29.10
2019-01-23T02:57:16.146Z,29.60
2019-01-23T02:58:16.160Z,30.20
2019-01-23T02:59:17.523Z,29.30
2019-01-23T03:00:16.110Z,30.10
2019-01-23T03:01:16.096Z,30.60
2019-01-23T03:02:16.086Z,30.40
2019-01-23T03:03:16.082Z,30.20
2019-01-23T03:04:16.079Z,29.80
2019-01-23T03:05:16.060Z,29.30
2019-01-23T03:06:16.049Z,31.00
2019-01-23T03:07:16.035Z,31.60
2019-01-23T03:08:16.026Z,30.50
2019-01-23T03:09:16.025Z,28.80
2019-01-23T03:10:16.020Z,30.80
2019-01-23T03:11:15.996Z,31.60
2019-01-23T03:12:15.987Z,29.00
2019-01-23T03:13:15.969Z,30.70
2019-01-23T03:14:15.958Z,29.80
2019-01-23T03:15:15.953Z,31.40
2019-01-23T03:16:15.957Z,31.40
2019-01-23T03:17:15.927Z,31.80
2019-01-23T03:18:15.915Z,29.70
2019-01-23T03:19:15.908Z,33.10
2019-01-23T03:20:15.904Z,30.80
2019-01-23T03:21:15.906Z,30.90
2019-01-23T03:22:15.884Z,30.20
2019-01-23T03:23:15.866Z,31.50
2019-01-23T03:24:15.856Z,30.30
2019-01-23T03:25:15.841Z,31.30
2019-01-23T03:26:15.866Z,30.10
2019-01-23T03:27:15.859Z,30.40
2019-01-23T03:28:15.811Z,31.00
2019-01-23T03:29:15.800Z,31.10
2019-01-23T03:30:15.790Z,32.30
2019-01-23T03:31:15.782Z,31.60
2019-01-23T03:32:15.770Z,31.00
2019-01-23T03:33:15.778Z,32.00
2019-01-23T03:34:15.746Z,32.00
2019-01-23T03:35:15.734Z,30.80
2019-01-23T03:36:15.723Z,31.50
2019-01-23T03:37:16.706Z,33.00
2019-01-23T03:38:15.715Z,32.70
2019-01-23T03:39:15.723Z,32.30
2019-01-23T03:40:15.686Z,33.40
2019-01-23T03:41:15.675Z,31.20
2019-01-23T03:42:15.667Z,31.20
2019-01-23T03:43:15.655Z,31.20
2019-01-23T03:44:15.642Z,32.00
2019-01-23T03:45:15.737Z,32.90
2019-01-23T03:46:15.620Z,31.50
2019-01-23T03:47:15.615Z,32.20
2019-01-23T03:48:15.608Z,32.10
2019-01-23T03:49:15.587Z,32.10
2019-01-23T03:50:15.595Z,32.70
2019-01-23T03:51:15.580Z,32.80
2019-01-23T03:52:15.553Z,32.90
2019-01-23T03:53:15.544Z,33.20
2019-01-23T03:54:15.541Z,31.40
2019-01-23T03:55:15.540Z,32.50
2019-01-23T03:56:15.533Z,31.70
2019-01-23T03:57:15.524Z,32.60
2019-01-23T03:58:15.494Z,31.60
2019-01-23T03:59:15.484Z,32.30
2019-01-23T04:00:15.473Z,32.30
2019-01-23T04:01:15.524Z,31.40
2019-01-23T04:02:15.454Z,31.90
2019-01-23T04:03:15.449Z,31.70
2019-01-23T04:04:15.431Z,32.80
2019-01-23T04:05:15.416Z,33.20
2019-01-23T04:06:15.409Z,31.80
2019-01-23T04:07:15.410Z,31.90
2019-01-23T04:08:15.390Z,32.40
2019-01-23T04:09:15.402Z,32.50
2019-01-23T04:10:15.372Z,33.90
2019-01-23T04:11:15.358Z,32.10
2019-01-23T04:12:15.365Z,32.20
2019-01-23T04:13:15.333Z,33.20
2019-01-23T04:14:15.319Z,32.70
2019-01-23T04:15:15.306Z,32.40
2019-01-23T04:16:15.288Z,31.90
2019-01-23T04:17:15.280Z,31.20
2019-01-23T04:18:15.278Z,33.60
2019-01-23T04:19:15.262Z,32.50
2019-01-23T04:20:15.263Z,33.50
2019-01-23T04:21:15.253Z,33.70
2019-01-23T04:22:15.230Z,32.80
2019-01-23T04:23:15.211Z,32.80
2019-01-23T04:24:15.217Z,31.80
2019-01-23T04:25:15.207Z,32.30
2019-01-23T04:26:15.183Z,32.30
2019-01-23T04:27:15.175Z,32.90
2019-01-23T04:28:15.159Z,32.80
2019-01-23T04:29:15.158Z,33.50
2019-01-23T04:30:15.158Z,34.30
2019-01-23T04:31:15.135Z,32.50
2019-01-23T04:32:15.117Z,33.10
2019-01-23T04:33:15.108Z,33.30
2019-01-23T04:34:15.095Z,32.00
2019-01-23T04:35:15.087Z,34.10
2019-01-23T04:36:15.100Z,34.00
2019-01-23T04:37:15.065Z,33.30
2019-01-23T04:38:15.054Z,32.40
2019-01-23T04:39:15.042Z,32.70
2019-01-23T04:40:15.034Z,32.50
2019-01-23T04:41:15.022Z,33.20
2019-01-23T04:42:15.024Z,31.80
2019-01-23T04:43:15.021Z,32.60
2019-01-23T04:44:15.035Z,32.80
2019-01-23T04:45:14.979Z,33.30
2019-01-23T04:46:14.973Z,34.20
2019-01-23T04:47:14.978Z,32.80
2019-01-23T04:48:14.949Z,32.40
2019-01-23T04:49:14.941Z,33.60
2019-01-23T04:50:14.946Z,33.20
2019-01-23T04:51:14.917Z,32.50
2019-01-23T04:52:14.903Z,32.80
2019-01-23T04:53:14.910Z,34.10
2019-01-23T04:54:14.884Z,31.80
2019-01-23T04:55:14.872Z,32.10
2019-01-23T04:56:14.883Z,32.70
2019-01-23T04:57:14.860Z,31.10
2019-01-23T04:58:14.842Z,33.60
2019-01-23T04:59:14.902Z,33.30
2019-01-23T05:00:14.834Z,34.00
2019-01-23T05:01:14.852Z,33.30
2019-01-23T05:02:14.809Z,33.10
2019-01-23T05:03:14.787Z,33.10
2019-01-23T05:04:14.799Z,32.80
2019-01-23T05:05:14.778Z,32.50
2019-01-23T05:06:14.763Z,33.70
2019-01-23T05:07:14.750Z,33.90
2019-01-23T05:08:14.735Z,33.20
2019-01-23T05:09:14.734Z,33.40
2019-01-23T05:10:14.738Z,33.00
2019-01-23T05:11:14.715Z,32.90
2019-01-23T05:12:14.737Z,33.20
2019-01-23T05:13:14.685Z,33.30
2019-01-23T05:14:14.673Z,32.80
2019-01-23T05:15:14.670Z,32.70
2019-01-23T05:16:14.662Z,33.20
2019-01-23T05:17:14.647Z,31.30
2019-01-23T05:18:14.633Z,33.70
2019-01-23T05:19:14.622Z,33.70
2019-01-23T05:20:14.614Z,32.80
2019-01-23T05:21:14.615Z,32.90
2019-01-23T05:22:14.588Z,32.80
2019-01-23T05:23:14.580Z,33.40
2019-01-23T05:24:14.577Z,32.80
2019-01-23T05:25:14.558Z,31.70
2019-01-23T05:26:14.557Z,31.80
2019-01-23T05:27:14.554Z,32.00
2019-01-23T05:28:14.527Z,32.60
2019-01-23T05:29:14.514Z,31.70
2019-01-23T05:30:14.505Z,32.80
2019-01-23T05:31:14.495Z,33.00
2019-01-23T05:32:14.494Z,34.20
2019-01-23T05:33:14.474Z,32.90
2019-01-23T05:34:14.483Z,32.90
2019-01-23T05:35:14.448Z,32.80
2019-01-23T05:36:14.438Z,32.30
2019-01-23T05:37:14.444Z,31.50
2019-01-23T05:38:14.427Z,31.50
2019-01-23T05:39:14.409Z,31.80
2019-01-23T05:40:14.414Z,30.20
2019-01-23T05:41:14.386Z,31.70
2019-01-23T05:42:14.375Z,30.50
2019-01-23T05:43:14.384Z,31.40
2019-01-23T05:44:14.352Z,31.30
2019-01-23T05:45:14.351Z,31.90
2019-01-23T05:46:14.351Z,31.70
2019-01-23T05:47:14.327Z,31.10
2019-01-23T05:48:14.330Z,31.50
2019-01-23T05:49:14.305Z,30.50
2019-01-23T05:50:14.298Z,31.10
2019-01-23T05:51:14.283Z,31.40
2019-01-23T05:52:14.283Z,30.20
2019-01-23T05:53:14.259Z,29.50
2019-01-23T05:54:14.266Z,30.60
2019-01-23T05:55:14.239Z,31.30
2019-01-23T05:56:14.226Z,29.80
2019-01-23T05:57:14.225Z,29.50
2019-01-23T05:58:14.212Z,30.00
2019-01-23T05:59:14.202Z,29.30
2019-01-23T06:00:14.200Z,30.40
2019-01-23T06:01:14.177Z,28.90
2019-01-23T06:02:14.175Z,30.60
2019-01-23T06:03:14.158Z,28.30
2019-01-23T06:04:14.175Z,29.10
2019-01-23T06:05:14.172Z,29.50
2019-01-23T06:06:14.135Z,27.80
2019-01-23T06:07:14.115Z,29.20
2019-01-23T06:08:14.102Z,29.90
2019-01-23T06:09:14.118Z,30.20
2019-01-23T06:10:14.078Z,29.70
2019-01-23T06:11:14.086Z,29.00
2019-01-23T06:12:14.072Z,28.40
2019-01-23T06:13:14.051Z,28.20
2019-01-23T06:14:14.039Z,28.70
2019-01-23T06:15:14.026Z,29.10
2019-01-23T06:16:14.016Z,30.50
2019-01-23T06:17:14.037Z,29.20
2019-01-23T06:18:14.002Z,29.00
2019-01-23T06:19:13.997Z,29.40
2019-01-23T06:20:13.975Z,30.00
2019-01-23T06:21:13.961Z,29.50
2019-01-23T06:22:13.952Z,30.00
2019-01-23T06:23:13.964Z,27.60
2019-01-23T06:24:13.944Z,29.80
2019-01-23T06:25:13.938Z,28.80
2019-01-23T06:26:13.910Z,29.80
2019-01-23T06:27:13.901Z,29.50
2019-01-23T06:28:13.887Z,28.80
2019-01-23T06:29:13.895Z,28.20
2019-01-23T06:30:13.872Z,28.40
2019-01-23T06:31:13.895Z,28.10
2019-01-23T06:32:13.845Z,29.00
2019-01-23T06:33:13.833Z,27.80
2019-01-23T06:34:13.837Z,28.90
2019-01-23T06:35:13.812Z,28.70
2019-01-23T06:36:13.803Z,28.00
2019-01-23T06:37:13.813Z,28.00
2019-01-23T06:38:13.785Z,28.60
2019-01-23T06:39:13.770Z,28.80
2019-01-23T06:40:13.763Z,28.40
2019-01-23T06:41:13.750Z,28.10
2019-01-23T06:42:13.759Z,28.00
2019-01-23T06:43:13.740Z,27.70
2019-01-23T06:44:13.718Z,26.70
2019-01-23T06:45:13.730Z,27.10
2019-01-23T06:46:13.700Z,27.40
2019-01-23T06:47:13.688Z,27.60
2019-01-23T06:48:13.690Z,26.50
2019-01-23T06:49:13.677Z,26.90
2019-01-23T06:50:13.664Z,28.90
2019-01-23T06:51:13.642Z,27.10
2019-01-23T06:52:13.632Z,27.30
2019-01-23T06:53:14.221Z,27.90
2019-01-23T06:54:13.642Z,26.30
2019-01-23T06:55:13.651Z,27.00
2019-01-23T06:56:13.608Z,27.10
2019-01-23T06:57:13.580Z,27.30
2019-01-23T06:58:13.571Z,27.60
2019-01-23T06:59:13.559Z,27.10
2019-01-23T07:00:17.300Z,26.70
2019-01-23T07:01:13.544Z,26.90
2019-01-23T07:02:13.540Z,26.20
2019-01-23T07:03:13.532Z,27.80
2019-01-23T07:04:13.504Z,26.80
2019-01-23T07:05:13.494Z,26.20
2019-01-23T07:06:13.484Z,28.00
2019-01-23T07:07:13.474Z,27.20
2019-01-23T07:08:13.484Z,27.00
2019-01-23T07:09:13.451Z,26.40
2019-01-23T07:10:13.440Z,26.10
2019-01-23T07:11:13.452Z,26.20
2019-01-23T07:12:13.425Z,26.70
2019-01-23T07:13:13.411Z,26.90
2019-01-23T07:14:13.415Z,28.00
2019-01-23T07:15:13.398Z,26.50
2019-01-23T07:16:13.379Z,25.50
2019-01-23T07:17:13.378Z,26.40
2019-01-23T07:18:13.364Z,27.00
2019-01-23T07:19:13.348Z,27.20
2019-01-23T07:20:13.362Z,27.80
2019-01-23T07:21:13.334Z,27.50
2019-01-23T07:22:13.315Z,26.10
2019-01-23T07:23:13.307Z,27.50
2019-01-23T07:24:13.296Z,27.10
2019-01-23T07:25:13.283Z,26.90
2019-01-23T07:26:13.285Z,26.40
2019-01-23T07:27:13.262Z,27.40
2019-01-23T07:28:13.278Z,26.50
2019-01-23T07:29:13.238Z,26.70
2019-01-23T07:30:13.231Z,26.80
2019-01-23T07:31:13.219Z,27.20
2019-01-23T07:32:13.221Z,27.00
2019-01-23T07:33:13.199Z,27.30
2019-01-23T07:34:13.203Z,26.20
2019-01-23T07:35:13.188Z,26.80
2019-01-23T07:36:13.167Z,26.30
2019-01-23T07:37:13.158Z,26.10
2019-01-23T07:38:13.146Z,26.50
2019-01-23T07:39:13.134Z,27.90
2019-01-23T07:40:13.136Z,26.80
2019-01-23T07:41:13.115Z,27.10
2019-01-23T07:42:13.108Z,26.00
2019-01-23T07:43:13.106Z,26.70
2019-01-23T07:44:13.079Z,27.20
2019-01-23T07:45:13.070Z,27.30
2019-01-23T07:46:13.068Z,28.20
2019-01-23T07:47:13.049Z,27.30
2019-01-23T07:48:13.047Z,26.70
2019-01-23T07:49:13.045Z,28.20
2019-01-23T07:50:13.023Z,27.20
2019-01-23T07:51:13.007Z,26.40
2019-01-23T07:52:12.998Z,26.90
2019-01-23T07:53:12.987Z,27.00
2019-01-23T07:54:13.030Z,27.10
2019-01-23T07:55:12.967Z,26.90
2019-01-23T07:56:12.956Z,27.00
2019-01-23T07:57:12.945Z,26.30
2019-01-23T07:58:12.939Z,27.10
2019-01-23T07:59:12.922Z,26.30
2019-01-23T08:00:12.932Z,28.80
2019-01-23T08:01:12.909Z,26.10
2019-01-23T08:02:12.892Z,27.90
2019-01-23T08:03:12.885Z,27.70
2019-01-23T08:04:12.869Z,28.40
2019-01-23T08:05:19.238Z,27.60
2019-01-23T08:06:13.870Z,27.30
2019-01-23T08:07:12.858Z,26.00
2019-01-23T08:08:12.828Z,26.50
2019-01-23T08:09:12.817Z,27.90
2019-01-23T08:10:12.806Z,27.20
2019-01-23T08:11:12.809Z,27.60
2019-01-23T08:12:12.785Z,27.50
2019-01-23T08:13:12.842Z,27.60
2019-01-23T08:14:12.777Z,27.10
2019-01-23T08:15:12.755Z,27.60
2019-01-23T08:16:12.742Z,28.20
2019-01-23T08:17:12.743Z,26.80
2019-01-23T08:18:12.720Z,29.00
2019-01-23T08:19:12.708Z,27.30
2019-01-23T08:20:12.707Z,28.00
2019-01-23T08:21:12.690Z,28.40
2019-01-23T08:22:12.692Z,28.80
2019-01-23T08:23:12.666Z,28.50
2019-01-23T08:24:12.655Z,28.40
2019-01-23T08:25:12.691Z,28.00
2019-01-23T08:26:12.641Z,27.20
2019-01-23T08:27:12.623Z,27.60
2019-01-23T08:28:12.614Z,28.00
2019-01-23T08:29:12.606Z,28.00
2019-01-23T08:30:12.594Z,28.30
2019-01-23T08:31:12.616Z,28.60
2019-01-23T08:32:12.572Z,29.90
2019-01-23T08:33:12.581Z,28.70
2019-01-23T08:34:12.553Z,28.80
2019-01-23T08:35:12.545Z,28.90
2019-01-23T08:36:12.536Z,27.20
2019-01-23T08:37:12.545Z,28.30
2019-01-23T08:38:12.508Z,28.20
2019-01-23T08:39:12.517Z,28.40
2019-01-23T08:40:12.487Z,28.00
2019-01-23T08:41:12.479Z,28.70
2019-01-23T08:42:12.470Z,27.80
2019-01-23T08:43:12.493Z,28.20
2019-01-23T08:44:12.462Z,27.90
2019-01-23T08:45:12.438Z,28.70
2019-01-23T08:46:12.421Z,29.10
2019-01-23T08:47:12.411Z,27.90
2019-01-23T08:48:12.402Z,27.80
2019-01-23T08:49:12.424Z,28.70
2019-01-23T08:50:12.411Z,28.80
2019-01-23T08:51:12.380Z,27.20
2019-01-23T08:52:12.359Z,28.30
2019-01-23T08:53:12.353Z,27.30
2019-01-23T08:54:12.340Z,28.50
2019-01-23T08:55:12.337Z,28.00
2019-01-23T08:56:12.315Z,28.10
2019-01-23T08:57:12.338Z,29.10
2019-01-23T08:58:12.298Z,28.20
2019-01-23T08:59:12.286Z,27.90
2019-01-23T09:00:12.298Z,26.90
2019-01-23T09:01:12.267Z,26.90
2019-01-23T09:02:12.253Z,28.20
2019-01-23T09:03:12.255Z,27.00
2019-01-23T09:04:12.232Z,27.70
2019-01-23T09:05:12.220Z,29.00
2019-01-23T09:06:12.228Z,27.60
2019-01-23T09:07:12.215Z,28.60
2019-01-23T09:08:12.188Z,28.30
2019-01-23T09:09:12.181Z,27.40
2019-01-23T09:10:12.181Z,28.60
2019-01-23T09:11:12.156Z,28.30
2019-01-23T09:12:12.178Z,27.10
2019-01-23T09:13:12.138Z,27.50
2019-01-23T09:14:12.126Z,26.50
2019-01-23T09:15:12.116Z,26.50
2019-01-23T09:16:12.104Z,28.80
2019-01-23T09:17:12.100Z,27.20
2019-01-23T09:18:12.123Z,27.80
2019-01-23T09:19:12.076Z,29.10
2019-01-23T09:20:12.068Z,28.20
2019-01-23T09:21:12.053Z,27.60
2019-01-23T09:22:12.043Z,28.10
2019-01-23T09:23:12.043Z,27.70
2019-01-23T09:24:12.041Z,28.10
2019-01-23T09:25:12.015Z,27.90
2019-01-23T09:26:12.022Z,27.90
2019-01-23T09:27:11.991Z,28.10
2019-01-23T09:28:11.980Z,28.10
2019-01-23T09:29:12.009Z,29.10
2019-01-23T09:30:11.973Z,28.30
2019-01-23T09:31:11.959Z,30.60
2019-01-23T09:32:11.947Z,22.40
2019-01-23T09:33:11.924Z,29.70
2019-01-23T09:34:11.934Z,28.70
2019-01-23T09:35:11.903Z,28.50
2019-01-23T09:36:11.944Z,27.40
2019-01-23T09:37:11.911Z,27.80
2019-01-23T09:38:11.877Z,28.10
2019-01-23T09:39:11.966Z,27.70
2019-01-23T09:40:11.851Z,28.40
2019-01-23T09:41:11.839Z,28.00
2019-01-23T09:42:11.851Z,28.70
2019-01-23T09:43:11.837Z,28.20
2019-01-23T09:44:11.813Z,26.70
2019-01-23T09:45:11.796Z,28.80
2019-01-23T09:46:11.794Z,29.20
2019-01-23T09:47:11.791Z,28.00
2019-01-23T09:48:11.776Z,26.50
2019-01-23T09:49:11.754Z,27.60
2019-01-23T09:50:11.762Z,28.30
2019-01-23T09:51:11.733Z,28.30
2019-01-23T09:52:11.746Z,28.20
2019-01-23T09:53:11.728Z,27.10
2019-01-23T09:54:11.713Z,28.90
2019-01-23T09:55:11.688Z,28.40
2019-01-23T09:56:11.687Z,28.70
2019-01-23T09:57:11.679Z,27.60
2019-01-23T09:58:11.695Z,28.30
2019-01-23T09:59:11.678Z,27.70
2019-01-23T10:00:11.638Z,26.60
2019-01-23T10:01:11.626Z,29.00
2019-01-23T10:02:11.616Z,28.50
2019-01-23T10:03:11.602Z,28.10
2019-01-23T10:04:11.599Z,28.40
2019-01-23T10:05:11.606Z,27.10
2019-01-23T10:06:11.573Z,27.40
2019-01-23T10:07:11.561Z,29.20
2019-01-23T10:08:11.567Z,29.20
2019-01-23T10:09:11.547Z,28.90
2019-01-23T10:10:11.530Z,28.40
2019-01-23T10:11:11.531Z,28.70
2019-01-23T10:12:11.509Z,27.90
2019-01-23T10:13:11.497Z,27.80
2019-01-23T10:14:11.489Z,26.80
2019-01-23T10:15:11.474Z,26.50
2019-01-23T10:16:11.489Z,27.80
2019-01-23T10:17:11.459Z,28.60
2019-01-23T10:18:11.450Z,27.60
2019-01-23T10:19:11.453Z,27.50
2019-01-23T10:20:11.424Z,27.90
2019-01-23T10:21:11.415Z,27.90
2019-01-23T10:22:11.417Z,28.00
2019-01-23T10:23:11.395Z,28.30
2019-01-23T10:24:11.378Z,25.10
2019-01-23T10:25:11.382Z,25.70
2019-01-23T10:26:11.361Z,15.60
2019-01-23T10:27:11.346Z,15.30
2019-01-23T10:28:11.356Z,20.30
2019-01-23T10:29:11.327Z,24.50
2019-01-23T10:30:11.314Z,24.70
2019-01-23T10:34:50.628Z,24.90
2019-01-23T10:35:50.589Z,26.20
2019-01-23T10:36:50.615Z,27.50
2019-01-23T10:37:50.567Z,26.10
2019-01-23T10:38:50.559Z,26.60
2019-01-23T10:39:50.596Z,27.30
2019-01-23T10:40:50.531Z,27.50
2019-01-23T10:41:50.523Z,27.70
2019-01-23T10:42:50.516Z,28.70
2019-01-23T10:43:50.502Z,27.70
2019-01-23T10:44:50.501Z,27.80
2019-01-23T10:45:50.497Z,28.30
2019-01-23T10:46:50.467Z,26.70
2019-01-23T10:47:56.056Z,27.70
2019-01-23T10:48:51.442Z,28.70
2019-01-23T10:49:50.432Z,27.90
2019-01-23T10:50:50.455Z,27.90
2019-01-23T10:51:50.449Z,28.30
2019-01-23T10:52:50.416Z,27.10
2019-01-23T10:53:50.421Z,26.90
2019-01-23T10:54:50.384Z,28.40
2019-01-23T10:55:50.373Z,27.70
2019-01-23T10:56:50.369Z,28.80
2019-01-23T10:57:50.369Z,27.70
2019-01-23T10:58:50.344Z,27.10
2019-01-23T10:59:50.329Z,28.10
2019-01-23T11:00:50.320Z,27.50
2019-01-23T11:01:50.322Z,28.30
2019-01-23T11:02:50.299Z,28.20
2019-01-23T11:03:50.309Z,28.70
2019-01-23T11:04:50.279Z,29.40
2019-01-23T11:05:50.294Z,27.90
2019-01-23T11:06:50.292Z,28.20
2019-01-23T11:07:50.241Z,28.40
2019-01-23T11:08:50.233Z,29.10
2019-01-23T11:09:50.236Z,28.30
2019-01-23T11:10:50.227Z,28.70
2019-01-23T11:11:50.197Z,28.00
2019-01-23T11:12:50.198Z,26.90
2019-01-23T11:13:50.174Z,27.60
2019-01-23T11:14:50.166Z,28.60
2019-01-23T11:15:50.182Z,27.20
2019-01-23T11:16:50.148Z,28.10
2019-01-23T11:17:50.187Z,27.00
2019-01-23T11:18:50.122Z,28.10
2019-01-23T11:19:50.111Z,27.80
2019-01-23T11:20:50.100Z,27.30
2019-01-23T11:21:50.104Z,27.10
2019-01-23T11:22:50.083Z,26.40
2019-01-23T11:23:50.065Z,27.20
2019-01-23T11:24:50.066Z,26.90
2019-01-23T11:25:50.045Z,27.60
2019-01-23T11:26:50.037Z,27.10
2019-01-23T11:27:50.037Z,26.90
2019-01-23T11:28:50.009Z,26.60
2019-01-23T11:29:50.004Z,28.00
2019-01-23T11:30:50.017Z,25.60
2019-01-23T11:31:49.992Z,26.30
2019-01-23T11:32:49.992Z,27.40
2019-01-23T11:33:49.958Z,26.90
2019-01-23T11:34:49.947Z,27.80
2019-01-23T11:35:49.953Z,26.90
2019-01-23T11:36:49.934Z,27.90
2019-01-23T11:37:49.920Z,28.20
2019-01-23T11:38:49.948Z,28.10
2019-01-23T11:39:49.915Z,27.50
2019-01-23T11:40:49.958Z,26.80
2019-01-23T11:41:49.873Z,28.20
2019-01-23T11:42:49.881Z,25.80
2019-01-23T11:43:49.882Z,26.30
2019-01-23T11:44:49.845Z,26.00
2019-01-23T11:45:49.830Z,26.70
2019-01-23T11:46:49.820Z,26.40
2019-01-23T11:47:49.807Z,26.60
2019-01-23T11:48:49.799Z,26.20
2019-01-23T11:49:49.809Z,25.40
2019-01-23T11:50:49.776Z,27.00
2019-01-23T11:51:49.765Z,27.50
2019-01-23T11:52:49.750Z,26.10
2019-01-23T11:53:49.747Z,25.10
2019-01-23T11:54:49.729Z,25.80
2019-01-23T11:55:49.738Z,24.90
2019-01-23T11:56:49.735Z,27.00
2019-01-23T11:57:49.699Z,26.90
2019-01-23T11:58:49.724Z,24.70
2019-01-23T11:59:49.674Z,26.00
2019-01-23T12:00:49.668Z,26.00
2019-01-23T12:01:49.672Z,25.20
2019-01-23T12:02:49.684Z,25.60
2019-01-23T12:03:49.654Z,25.30
2019-01-23T12:04:49.625Z,24.00
2019-01-23T12:05:49.614Z,25.20
2019-01-23T12:06:49.602Z,26.50
2019-01-23T12:07:49.594Z,24.90
2019-01-23T12:08:49.587Z,26.40
2019-01-23T12:09:49.621Z,25.60
2019-01-23T12:10:49.553Z,25.10
2019-01-23T12:11:49.546Z,24.90
2019-01-23T12:12:49.540Z,24.20
2019-01-23T12:13:49.536Z,25.60
2019-01-23T12:14:49.535Z,24.80
2019-01-23T12:15:49.529Z,25.20
2019-01-23T12:16:49.500Z,24.80
2019-01-23T12:17:49.482Z,23.00
2019-01-23T12:18:49.480Z,23.80
2019-01-23T12:19:49.459Z,22.70
2019-01-23T12:20:49.460Z,22.20
2019-01-23T12:21:49.436Z,20.70
2019-01-23T12:22:49.423Z,20.40
2019-01-23T12:23:49.415Z,20.30
2019-01-23T12:24:49.424Z,20.50
2019-01-23T12:25:49.412Z,18.70
2019-01-23T12:26:49.384Z,19.50
2019-01-23T12:27:49.378Z,20.10
2019-01-23T12:28:49.371Z,20.80
2019-01-23T12:29:49.347Z,20.10
2019-01-23T12:30:49.339Z,20.20
2019-01-23T12:31:49.339Z,20.00
2019-01-23T12:32:49.343Z,20.70
2019-01-23T12:33:49.349Z,20.90
2019-01-23T12:34:49.296Z,21.30
2019-01-23T12:35:49.286Z,21.70
2019-01-23T12:36:49.291Z,20.80
2019-01-23T12:37:49.264Z,21.30
2019-01-23T12:38:49.250Z,21.00
2019-01-23T12:39:49.247Z,20.40
2019-01-23T12:40:49.259Z,21.70
2019-01-23T12:41:49.236Z,21.60
2019-01-23T12:42:49.210Z,22.40
2019-01-23T12:43:49.200Z,20.70
2019-01-23T12:44:49.185Z,20.10
2019-01-23T12:45:49.182Z,21.10
2019-01-23T12:46:49.176Z,22.80
2019-01-23T12:47:49.178Z,21.70
2019-01-23T12:48:49.150Z,18.70
2019-01-23T12:49:49.151Z,18.60
2019-01-23T12:50:49.122Z,18.50
2019-01-23T12:51:49.112Z,21.00
2019-01-23T12:52:49.100Z,24.00
2019-01-23T12:53:49.122Z,23.10
2019-01-23T12:54:49.083Z,23.40
2019-01-23T12:55:49.072Z,22.30
2019-01-23T12:56:49.055Z,22.10